Time;durP1;ratioP1;P1;durP2;ratioP2;P2;SDS_P1;SDS_P2;PMS_P1;PMS_P2;Temp;Humidity;BMP_temperature;BMP_pressure;BME280_temperature;BME280_humidity;BME280_pressure;Samples;Min_cycle;Max_cycle;Signal;HPM_P1;HPM_P2
2024/04/17 00:01:05;;;;;;;;;9.00;4.67;;;;;;;;5499865;25;45135;-52
2024/04/17 00:03:30;;;;;;;;;5.67;4.67;;;;;;;;5495803;25;44023;-53
2024/04/17 00:05:55;;;;;;;;;9.33;5.33;;;;;;;;5501786;25;44379;-52
2024/04/17 00:08:20;;;;;;;;;7.00;5.00;;;;;;;;5465032;25;43939;-54
2024/04/17 00:10:45;;;;;;;;;5.00;3.00;;;;;;;;5481677;25;44109;-53
2024/04/17 00:13:10;;;;;;;;;5.00;4.00;;;;;;;;5480812;25;43937;-53
2024/04/17 00:15:36;;;;;;;;;4.33;4.33;;;;;;;;5492114;25;44011;-54
2024/04/17 00:18:01;;;;;;;;;6.00;3.67;;;;;;;;5461797;25;44088;-52
2024/04/17 00:20:26;;;;;;;;;6.00;3.00;;;;;;;;5499075;25;44083;-51
2024/04/17 00:22:51;;;;;;;;;5.00;3.00;;;;;;;;5479310;25;43819;-52
2024/04/17 00:25:16;;;;;;;;;8.67;4.00;;;;;;;;5468991;25;44029;-53
2024/04/17 00:27:42;;;;;;;;;3.33;3.00;;;;;;;;5474154;25;43843;-52
2024/04/17 00:30:07;;;;;;;;;4.67;4.67;;;;;;;;5461436;25;46611;-54
2024/04/17 00:32:32;;;;;;;;;2.00;2.00;;;;;;;;5499323;25;43890;-54
2024/04/17 00:34:57;;;;;;;;;6.00;4.00;;;;;;;;5479677;25;43801;-52
2024/04/17 00:37:22;;;;;;;;;4.67;3.00;;;;;;;;5480332;25;44284;-52
2024/04/17 00:39:48;;;;;;;;;2.67;2.67;;;;;;;;5498993;25;44189;-51
2024/04/17 00:42:13;;;;;;;;;2.00;2.00;;;;;;;;5498983;25;44481;-53
2024/04/17 00:44:38;;;;;;;;;4.00;2.00;;;;;;;;5478275;25;44496;-53
2024/04/17 00:47:05;;;;;;;;;3.00;3.00;;;;;;;;5480668;25;43906;-53
2024/04/17 00:49:31;;;;;;;;;4.67;3.33;;;;;;;;5492484;25;45145;-53
2024/04/17 00:51:56;;;;;;;;;4.33;3.33;;;;;;;;5491461;25;44019;-53
2024/04/17 00:54:21;;;;;;;;;6.33;6.00;;;;;;;;5493769;25;44734;-51
2024/04/17 00:56:46;;;;;;;;;6.00;5.33;;;;;;;;5458994;25;43972;-50
2024/04/17 00:59:12;;;;;;;;;6.67;5.33;;;;;;;;5487927;25;43873;-53
2024/04/17 01:01:37;;;;;;;;;6.33;6.33;;;;;;;;5459895;25;43961;-54
2024/04/17 01:04:02;;;;;;;;;8.33;7.33;;;;;;;;5498191;25;43856;-51
2024/04/17 01:06:28;;;;;;;;;11.67;6.67;;;;;;;;5490154;25;43996;-53
2024/04/17 01:08:53;;;;;;;;;10.00;7.33;;;;;;;;5495554;25;44923;-54
2024/04/17 01:11:18;;;;;;;;;5.67;5.67;;;;;;;;5453094;25;43982;-50
2024/04/17 01:13:44;;;;;;;;;5.67;5.67;;;;;;;;5497242;25;43881;-51
2024/04/17 01:16:09;;;;;;;;;7.33;7.33;;;;;;;;5498785;25;43799;-52
2024/04/17 01:18:34;;;;;;;;;7.00;7.00;;;;;;;;5498807;25;43988;-50
2024/04/17 01:21:02;;;;;;;;;8.00;7.00;;;;;;;;5497398;25;43824;-50
2024/04/17 01:23:27;;;;;;;;;7.00;7.00;;;;;;;;5499676;25;44123;-53
2024/04/17 01:25:52;;;;;;;;;6.33;5.00;;;;;;;;5502620;25;43926;-53
2024/04/17 01:28:17;;;;;;;;;8.33;6.00;;;;;;;;5490273;25;44113;-54
2024/04/17 01:30:42;;;;;;;;;8.33;6.33;;;;;;;;5487512;25;43916;-51
2024/04/17 01:33:08;;;;;;;;;8.00;5.00;;;;;;;;5479136;25;44016;-53
2024/04/17 01:35:33;;;;;;;;;10.00;10.00;;;;;;;;5476269;25;45256;-52
2024/04/17 01:37:58;;;;;;;;;4.33;4.33;;;;;;;;5485420;25;44002;-53
2024/04/17 01:40:23;;;;;;;;;8.67;5.00;;;;;;;;5491365;25;43824;-51
2024/04/17 01:42:48;;;;;;;;;4.33;4.33;;;;;;;;5484334;25;43840;-53
2024/04/17 01:45:14;;;;;;;;;7.00;6.33;;;;;;;;5473559;25;44061;-53
2024/04/17 01:47:39;;;;;;;;;9.33;5.67;;;;;;;;5487588;25;43837;-50
2024/04/17 01:50:07;;;;;;;;;7.00;6.00;;;;;;;;5501953;25;44036;-52
2024/04/17 01:52:32;;;;;;;;;9.67;8.33;;;;;;;;5498932;25;43888;-50
2024/04/17 01:54:57;;;;;;;;;8.00;6.33;;;;;;;;5476656;25;43972;-51
2024/04/17 01:57:22;;;;;;;;;8.67;6.67;;;;;;;;5502562;25;44820;-52
2024/04/17 01:59:47;;;;;;;;;4.00;3.00;;;;;;;;5500316;25;43823;-53
2024/04/17 02:02:12;;;;;;;;;5.33;5.33;;;;;;;;5486569;25;44034;-51
2024/04/17 02:04:38;;;;;;;;;6.00;5.33;;;;;;;;5491019;25;44062;-51
2024/04/17 02:07:03;;;;;;;;;6.00;4.67;;;;;;;;5484901;25;44184;-52
2024/04/17 02:09:28;;;;;;;;;6.33;5.33;;;;;;;;5455619;26;43857;-51
2024/04/17 02:11:53;;;;;;;;;6.00;6.00;;;;;;;;5499443;25;43973;-51
2024/04/17 02:14:18;;;;;;;;;4.00;3.00;;;;;;;;5502596;25;43924;-53
2024/04/17 02:16:44;;;;;;;;;6.00;4.00;;;;;;;;5484698;25;44922;-53
2024/04/17 02:19:09;;;;;;;;;5.00;5.00;;;;;;;;5488951;25;43892;-52
2024/04/17 02:21:34;;;;;;;;;5.00;5.00;;;;;;;;5486310;25;44099;-51
2024/04/17 02:23:59;;;;;;;;;3.67;3.67;;;;;;;;5487110;25;44161;-54
2024/04/17 02:26:24;;;;;;;;;4.00;4.00;;;;;;;;5500525;25;44034;-53
2024/04/17 02:28:49;;;;;;;;;5.00;5.00;;;;;;;;5484718;25;44021;-53
2024/04/17 02:31:15;;;;;;;;;5.67;5.67;;;;;;;;5486700;25;43833;-51
2024/04/17 02:33:40;;;;;;;;;6.00;4.00;;;;;;;;5443362;26;44321;-51
2024/04/17 02:36:05;;;;;;;;;4.33;4.33;;;;;;;;5485808;25;44034;-51
2024/04/17 02:38:31;;;;;;;;;4.67;4.00;;;;;;;;5492411;25;43885;-51
2024/04/17 02:40:56;;;;;;;;;5.00;5.00;;;;;;;;5499406;25;43920;-50
2024/04/17 02:43:21;;;;;;;;;9.00;5.00;;;;;;;;5501683;25;43908;-53
2024/04/17 02:45:46;;;;;;;;;6.67;5.00;;;;;;;;5492288;25;44103;-51
2024/04/17 02:48:12;;;;;;;;;3.67;3.67;;;;;;;;5481404;25;44049;-50
2024/04/17 02:50:37;;;;;;;;;3.00;3.00;;;;;;;;5492761;25;43901;-52
2024/04/17 02:53:02;;;;;;;;;5.00;4.00;;;;;;;;5482017;25;43998;-53
2024/04/17 02:55:28;;;;;;;;;4.00;4.00;;;;;;;;5486151;25;44835;-53
2024/04/17 02:57:53;;;;;;;;;3.00;3.00;;;;;;;;5486466;25;44194;-52
2024/04/17 03:00:19;;;;;;;;;2.33;2.33;;;;;;;;5502569;25;43951;-51
2024/04/17 03:02:44;;;;;;;;;1.67;1.67;;;;;;;;5499146;25;43890;-51
2024/04/17 03:05:09;;;;;;;;;4.67;3.00;;;;;;;;5499754;25;45011;-53
2024/04/17 03:07:34;;;;;;;;;4.00;2.00;;;;;;;;5493670;25;44025;-53
2024/04/17 03:09:59;;;;;;;;;2.00;2.00;;;;;;;;5480520;25;43832;-50
2024/04/17 03:12:24;;;;;;;;;2.00;2.00;;;;;;;;5495846;25;43952;-54
2024/04/17 03:14:50;;;;;;;;;3.00;3.00;;;;;;;;5469270;25;45748;-50
2024/04/17 03:17:15;;;;;;;;;2.00;2.00;;;;;;;;5502230;25;43780;-52
2024/04/17 03:19:41;;;;;;;;;2.00;1.67;;;;;;;;5457416;25;45901;-52
2024/04/17 03:22:06;;;;;;;;;2.33;2.00;;;;;;;;5480968;25;43839;-51
2024/04/17 03:24:31;;;;;;;;;2.00;2.00;;;;;;;;5481096;25;45165;-52
2024/04/17 03:26:56;;;;;;;;;1.00;1.00;;;;;;;;5498915;25;44175;-52
2024/04/17 03:29:21;;;;;;;;;2.00;2.00;;;;;;;;5500487;25;43851;-50
2024/04/17 03:31:47;;;;;;;;;2.67;2.67;;;;;;;;5501391;25;43832;-52
2024/04/17 03:34:12;;;;;;;;;3.33;2.00;;;;;;;;5486125;25;43892;-54
2024/04/17 03:36:37;;;;;;;;;1.00;1.00;;;;;;;;5497849;25;43854;-54
2024/04/17 03:39:02;;;;;;;;;2.00;2.00;;;;;;;;5449253;25;43770;-53
2024/04/17 03:41:27;;;;;;;;;4.67;2.67;;;;;;;;5501054;25;43777;-51
2024/04/17 03:43:53;;;;;;;;;2.00;2.00;;;;;;;;5498805;25;45025;-52
2024/04/17 03:46:18;;;;;;;;;2.00;2.00;;;;;;;;5492230;25;43753;-54
2024/04/17 03:48:43;;;;;;;;;2.67;1.00;;;;;;;;5493769;25;43885;-54
2024/04/17 03:51:08;;;;;;;;;2.67;2.00;;;;;;;;5501723;25;43814;-52
2024/04/17 03:53:33;;;;;;;;;4.33;2.00;;;;;;;;5489056;25;43960;-52
2024/04/17 03:55:58;;;;;;;;;2.00;2.00;;;;;;;;5500571;25;43992;-51
2024/04/17 03:58:24;;;;;;;;;3.00;2.00;;;;;;;;5499914;25;43951;-51
2024/04/17 04:00:49;;;;;;;;;2.00;1.67;;;;;;;;5501646;25;44058;-49
2024/04/17 04:03:14;;;;;;;;;0.33;0.00;;;;;;;;5490425;25;44376;-53
2024/04/17 04:05:43;;;;;;;;;2.00;1.00;;;;;;;;5499663;25;43880;-53
2024/04/17 04:08:08;;;;;;;;;1.00;1.00;;;;;;;;5489646;25;44012;-51
2024/04/17 04:10:33;;;;;;;;;2.00;2.00;;;;;;;;5485836;25;43870;-54
2024/04/17 04:12:58;;;;;;;;;3.00;2.00;;;;;;;;5476400;25;44293;-50
2024/04/17 04:15:24;;;;;;;;;3.33;1.67;;;;;;;;5489446;25;43963;-54
2024/04/17 04:17:49;;;;;;;;;2.33;2.33;;;;;;;;5487941;25;43924;-51
2024/04/17 04:20:14;;;;;;;;;1.33;1.33;;;;;;;;5488840;25;43865;-53
2024/04/17 04:22:39;;;;;;;;;2.00;2.00;;;;;;;;5485724;25;44409;-53
2024/04/17 04:25:05;;;;;;;;;2.00;2.00;;;;;;;;5496398;25;43892;-51
2024/04/17 04:27:30;;;;;;;;;2.00;2.00;;;;;;;;5475852;25;43903;-53
2024/04/17 04:29:55;;;;;;;;;2.00;1.00;;;;;;;;5501012;25;44031;-54
2024/04/17 04:32:20;;;;;;;;;3.00;1.33;;;;;;;;5500155;25;44103;-51
2024/04/17 04:34:45;;;;;;;;;2.00;2.00;;;;;;;;5484975;25;43686;-49
2024/04/17 04:37:11;;;;;;;;;1.33;1.00;;;;;;;;5475105;25;43926;-52
2024/04/17 04:39:36;;;;;;;;;2.00;1.00;;;;;;;;5499556;25;44360;-51
2024/04/17 04:42:03;;;;;;;;;1.33;1.33;;;;;;;;5488027;25;43977;-50
2024/04/17 04:44:28;;;;;;;;;2.67;2.67;;;;;;;;5482728;25;44333;-52
2024/04/17 04:46:56;;;;;;;;;2.00;2.00;;;;;;;;5476894;25;43978;-53
2024/04/17 04:49:21;;;;;;;;;2.00;2.00;;;;;;;;5484155;25;43940;-53
2024/04/17 04:51:46;;;;;;;;;2.00;2.00;;;;;;;;5486819;25;44717;-51
2024/04/17 04:54:11;;;;;;;;;3.33;1.00;;;;;;;;5491924;25;43855;-52
2024/04/17 04:56:36;;;;;;;;;2.00;2.00;;;;;;;;5473495;25;44063;-52
2024/04/17 04:59:02;;;;;;;;;2.00;2.00;;;;;;;;5498668;25;44028;-51
2024/04/17 05:01:27;;;;;;;;;2.00;2.00;;;;;;;;5485672;25;44102;-51
2024/04/17 05:03:52;;;;;;;;;2.33;2.00;;;;;;;;5492263;25;43748;-51
2024/04/17 05:06:17;;;;;;;;;1.00;1.00;;;;;;;;5493118;25;44448;-53
2024/04/17 05:08:42;;;;;;;;;2.33;2.33;;;;;;;;5493832;25;43948;-54
2024/04/17 05:11:10;;;;;;;;;2.67;2.00;;;;;;;;5502128;25;45083;-54
2024/04/17 05:13:35;;;;;;;;;5.00;2.67;;;;;;;;5479332;25;43879;-51
2024/04/17 05:16:00;;;;;;;;;2.00;2.00;;;;;;;;5492405;25;43778;-53
2024/04/17 05:18:25;;;;;;;;;4.00;3.00;;;;;;;;5500796;25;44180;-54
2024/04/17 05:20:51;;;;;;;;;2.33;2.33;;;;;;;;5483237;25;44211;-54
2024/04/17 05:23:16;;;;;;;;;4.67;1.00;;;;;;;;5501662;25;43856;-51
2024/04/17 05:25:41;;;;;;;;;5.00;3.00;;;;;;;;5479897;25;43909;-50
2024/04/17 05:28:06;;;;;;;;;6.00;4.00;;;;;;;;5454916;25;43789;-51
2024/04/17 05:30:32;;;;;;;;;3.00;3.00;;;;;;;;5498698;25;44879;-52
2024/04/17 05:32:57;;;;;;;;;3.00;3.00;;;;;;;;5462434;26;43873;-52
2024/04/17 05:35:22;;;;;;;;;5.00;2.00;;;;;;;;5490247;25;44091;-51
2024/04/17 05:37:47;;;;;;;;;4.67;3.33;;;;;;;;5487031;25;44237;-54
2024/04/17 05:40:12;;;;;;;;;2.67;2.67;;;;;;;;5481257;25;43963;-54
2024/04/17 05:42:37;;;;;;;;;3.00;3.00;;;;;;;;5466520;25;43945;-53
2024/04/17 05:45:03;;;;;;;;;3.67;3.67;;;;;;;;5492131;25;43815;-54
2024/04/17 05:47:28;;;;;;;;;3.33;3.33;;;;;;;;5492832;25;43933;-52
2024/04/17 05:49:53;;;;;;;;;3.33;3.33;;;;;;;;5502806;25;43858;-53
2024/04/17 05:52:20;;;;;;;;;4.00;4.00;;;;;;;;5496199;25;43949;-53
2024/04/17 05:54:45;;;;;;;;;3.67;2.67;;;;;;;;5497071;25;43999;-53
2024/04/17 05:57:10;;;;;;;;;3.33;3.00;;;;;;;;5495221;25;44318;-55
2024/04/17 05:59:35;;;;;;;;;2.00;2.00;;;;;;;;5489689;25;43851;-53
2024/04/17 06:02:01;;;;;;;;;4.67;4.00;;;;;;;;5490237;25;44420;-54
2024/04/17 06:04:26;;;;;;;;;3.00;3.00;;;;;;;;5487589;25;43813;-53
2024/04/17 06:06:51;;;;;;;;;2.00;2.00;;;;;;;;5490381;25;43972;-54
2024/04/17 06:09:17;;;;;;;;;3.67;3.67;;;;;;;;5486585;25;44899;-54
2024/04/17 06:11:42;;;;;;;;;3.00;3.00;;;;;;;;5489235;25;44332;-52
2024/04/17 06:14:07;;;;;;;;;9.00;3.00;;;;;;;;5495024;25;43845;-53
2024/04/17 06:16:32;;;;;;;;;4.67;3.00;;;;;;;;5501925;25;44067;-52
2024/04/17 06:18:57;;;;;;;;;3.00;3.00;;;;;;;;5489565;25;43832;-51
2024/04/17 06:21:23;;;;;;;;;3.00;3.00;;;;;;;;5491847;25;43976;-54
2024/04/17 06:23:48;;;;;;;;;1.00;1.00;;;;;;;;5467840;25;44032;-53
2024/04/17 06:26:13;;;;;;;;;2.33;2.33;;;;;;;;5494565;25;44036;-51
2024/04/17 06:28:38;;;;;;;;;2.00;2.00;;;;;;;;5493583;25;45045;-53
2024/04/17 06:31:03;;;;;;;;;4.00;2.00;;;;;;;;5492820;25;43919;-52
2024/04/17 06:33:29;;;;;;;;;4.00;3.00;;;;;;;;5485780;25;44013;-53
2024/04/17 06:35:54;;;;;;;;;2.00;2.00;;;;;;;;5489658;25;43828;-53
2024/04/17 06:38:19;;;;;;;;;4.00;2.00;;;;;;;;5496890;25;44193;-51
2024/04/17 06:40:44;;;;;;;;;4.00;2.33;;;;;;;;5495166;25;43927;-51
2024/04/17 06:43:10;;;;;;;;;3.00;3.00;;;;;;;;5496511;25;43912;-53
2024/04/17 06:45:35;;;;;;;;;3.33;2.00;;;;;;;;5493288;25;43861;-52
2024/04/17 06:48:00;;;;;;;;;2.67;1.00;;;;;;;;5480788;25;44846;-53
2024/04/17 06:50:26;;;;;;;;;2.00;2.00;;;;;;;;5483100;25;44218;-54
2024/04/17 06:52:51;;;;;;;;;3.00;3.00;;;;;;;;5464388;25;44028;-54
2024/04/17 06:55:16;;;;;;;;;3.33;3.33;;;;;;;;5487847;25;43760;-55
2024/04/17 06:57:41;;;;;;;;;1.67;0.67;;;;;;;;5488118;25;43931;-56
2024/04/17 07:00:07;;;;;;;;;2.00;2.00;;;;;;;;5478440;25;44016;-56
2024/04/17 07:02:32;;;;;;;;;2.00;2.00;;;;;;;;5492007;25;44338;-56
2024/04/17 07:04:57;;;;;;;;;2.00;1.67;;;;;;;;5484113;25;44317;-55
2024/04/17 07:07:22;;;;;;;;;1.00;1.00;;;;;;;;5492987;25;45220;-56
2024/04/17 07:09:48;;;;;;;;;3.67;2.00;;;;;;;;5473961;25;43791;-56
2024/04/17 07:12:13;;;;;;;;;1.33;1.33;;;;;;;;5495371;25;43861;-57
2024/04/17 07:14:38;;;;;;;;;1.33;1.00;;;;;;;;5488086;25;43994;-57
2024/04/17 07:17:04;;;;;;;;;2.00;2.00;;;;;;;;5486538;25;44870;-57
2024/04/17 07:19:29;;;;;;;;;1.00;1.00;;;;;;;;5498785;25;44032;-57
2024/04/17 07:21:54;;;;;;;;;0.25;0.25;;;;;;;;5487656;25;43958;-57
2024/04/17 07:24:19;;;;;;;;;2.25;1.00;;;;;;;;5492021;25;43853;-58
2024/04/17 07:26:45;;;;;;;;;2.00;2.00;;;;;;;;5487788;25;45822;-58
2024/04/17 07:29:10;;;;;;;;;0.00;0.00;;;;;;;;5491709;25;43850;-56
2024/04/17 07:31:35;;;;;;;;;0.75;0.00;;;;;;;;5488894;25;43927;-57
2024/04/17 07:34:00;;;;;;;;;0.00;0.00;;;;;;;;5482775;25;43942;-56
2024/04/17 07:36:25;;;;;;;;;1.75;0.00;;;;;;;;5499205;25;45143;-56
2024/04/17 07:38:51;;;;;;;;;1.00;1.00;;;;;;;;5490674;25;43882;-56
2024/04/17 07:41:16;;;;;;;;;1.00;1.00;;;;;;;;5462721;25;44272;-56
2024/04/17 07:43:41;;;;;;;;;4.25;1.50;;;;;;;;5479791;25;43936;-57
2024/04/17 07:46:06;;;;;;;;;4.25;1.00;;;;;;;;5499484;25;44486;-57
2024/04/17 07:48:32;;;;;;;;;2.00;1.00;;;;;;;;5493221;25;43936;-57
2024/04/17 07:50:57;;;;;;;;;0.00;0.00;;;;;;;;5492328;25;43911;-57
2024/04/17 07:53:22;;;;;;;;;1.25;1.00;;;;;;;;5499412;25;43981;-57
2024/04/17 07:55:47;;;;;;;;;6.75;1.25;;;;;;;;5491231;25;44885;-57
2024/04/17 07:58:13;;;;;;;;;2.75;1.00;;;;;;;;5489389;25;44059;-56
2024/04/17 08:00:39;;;;;;;;;1.75;0.75;;;;;;;;5492283;25;44454;-57
2024/04/17 08:03:04;;;;;;;;;0.75;0.75;;;;;;;;5486333;25;43904;-57
2024/04/17 08:05:30;;;;;;;;;1.00;0.00;;;;;;;;5457104;25;46132;-57
2024/04/17 08:07:55;;;;;;;;;0.75;0.75;;;;;;;;5491210;25;43698;-57
2024/04/17 08:10:20;;;;;;;;;0.00;0.00;;;;;;;;5495580;25;44254;-57
2024/04/17 08:12:47;;;;;;;;;0.75;0.75;;;;;;;;5496232;25;44040;-57
2024/04/17 08:15:20;;;;;;;;;2.25;0.00;;;;;;;;5486151;25;44810;-57
2024/04/17 08:17:45;;;;;;;;;1.00;0.00;;;;;;;;5495472;25;43873;-58
2024/04/17 08:20:10;;;;;;;;;0.00;0.00;;;;;;;;5500958;25;43876;-57
2024/04/17 08:22:36;;;;;;;;;0.00;0.00;;;;;;;;5478789;25;43996;-58
2024/04/17 08:25:01;;;;;;;;;1.00;0.75;;;;;;;;5500714;25;45927;-57
2024/04/17 08:27:26;;;;;;;;;1.50;0.25;;;;;;;;5496616;25;43986;-58
2024/04/17 08:29:51;;;;;;;;;3.00;0.00;;;;;;;;5468205;25;43599;-57
2024/04/17 08:32:16;;;;;;;;;1.50;0.00;;;;;;;;5491669;25;44154;-57
2024/04/17 08:34:42;;;;;;;;;3.50;1.25;;;;;;;;5501156;25;43921;-57
2024/04/17 08:37:07;;;;;;;;;1.00;0.00;;;;;;;;5497858;25;43998;-57
2024/04/17 08:39:32;;;;;;;;;2.00;1.00;;;;;;;;5499536;25;44073;-57
2024/04/17 08:42:01;;;;;;;;;2.00;1.00;;;;;;;;5503258;25;44189;-58
2024/04/17 08:44:28;;;;;;;;;3.50;1.00;;;;;;;;5501638;25;44239;-57
2024/04/17 08:46:54;;;;;;;;;1.00;1.00;;;;;;;;5499945;25;44024;-57
2024/04/17 08:49:19;;;;;;;;;1.50;1.50;;;;;;;;5502106;25;43980;-58
2024/04/17 08:51:45;;;;;;;;;1.75;1.00;;;;;;;;5502998;25;43941;-57
2024/04/17 08:54:10;;;;;;;;;4.00;1.00;;;;;;;;5502270;25;43915;-57
2024/04/17 08:56:36;;;;;;;;;1.33;1.00;;;;;;;;5499128;25;43953;-58
2024/04/17 08:59:01;;;;;;;;;1.67;1.67;;;;;;;;5502614;25;44016;-57
2024/04/17 09:01:31;;;;;;;;;3.00;1.00;;;;;;;;5495000;25;43969;-58
2024/04/17 09:03:56;;;;;;;;;0.50;0.50;;;;;;;;5479360;25;44070;-57
2024/04/17 09:06:22;;;;;;;;;1.00;0.00;;;;;;;;5500500;25;44081;-57
2024/04/17 09:08:48;;;;;;;;;1.00;1.00;;;;;;;;5502982;25;43811;-58
2024/04/17 09:11:13;;;;;;;;;4.00;2.75;;;;;;;;5501676;25;43920;-58
2024/04/17 09:13:39;;;;;;;;;1.50;1.25;;;;;;;;5502509;25;45610;-57
2024/04/17 09:16:04;;;;;;;;;1.50;1.00;;;;;;;;5503315;25;43875;-58
2024/04/17 09:18:29;;;;;;;;;2.00;2.00;;;;;;;;5511841;25;43898;-58
2024/04/17 09:20:55;;;;;;;;;0.25;0.25;;;;;;;;5523120;25;43883;-58
2024/04/17 09:23:20;;;;;;;;;5.00;4.00;;;;;;;;5502022;25;44288;-58
2024/04/17 09:25:46;;;;;;;;;9.25;6.00;;;;;;;;5513634;25;43817;-58
2024/04/17 09:28:12;;;;;;;;;3.50;3.50;;;;;;;;5495901;25;44328;-58
2024/04/17 09:30:37;;;;;;;;;2.00;2.00;;;;;;;;5508435;25;43985;-58
2024/04/17 09:33:02;;;;;;;;;0.25;0.25;;;;;;;;5471030;25;45517;-58
2024/04/17 09:35:28;;;;;;;;;4.50;2.00;;;;;;;;5498364;25;43863;-58
2024/04/17 09:37:53;;;;;;;;;2.75;0.50;;;;;;;;5479525;25;44001;-58
2024/04/17 09:40:19;;;;;;;;;2.75;2.00;;;;;;;;5504747;25;44065;-58
2024/04/17 09:42:45;;;;;;;;;55.50;45.50;;;;;;;;5493916;25;43951;-58
2024/04/17 09:45:13;;;;;;;;;3.50;3.00;;;;;;;;5505455;25;44009;-58
2024/04/17 09:47:42;;;;;;;;;2.00;1.00;;;;;;;;5507447;25;44005;-58
2024/04/17 09:50:10;;;;;;;;;2.25;1.00;;;;;;;;5508517;25;43825;-58
2024/04/17 09:52:36;;;;;;;;;0.00;0.00;;;;;;;;5513290;25;44457;-58
2024/04/17 09:55:02;;;;;;;;;0.00;0.00;;;;;;;;5512219;25;43999;-58
2024/04/17 09:57:28;;;;;;;;;0.75;0.00;;;;;;;;5505965;25;43896;-58
2024/04/17 09:59:54;;;;;;;;;0.75;0.75;;;;;;;;5492317;25;43888;-58
2024/04/17 10:02:20;;;;;;;;;0.75;0.00;;;;;;;;5519336;25;44268;-58
2024/04/17 10:04:45;;;;;;;;;0.50;0.50;;;;;;;;5469493;25;43823;-58
2024/04/17 10:07:11;;;;;;;;;1.00;1.00;;;;;;;;5505048;25;44319;-58
2024/04/17 10:09:37;;;;;;;;;1.00;1.00;;;;;;;;5524007;25;44189;-59
2024/04/17 10:12:02;;;;;;;;;2.00;1.00;;;;;;;;5502688;25;43971;-58
2024/04/17 10:14:28;;;;;;;;;2.00;0.25;;;;;;;;5501072;25;43729;-59
2024/04/17 10:16:53;;;;;;;;;2.50;0.75;;;;;;;;5502203;25;43883;-58
2024/04/17 10:19:19;;;;;;;;;1.00;1.00;;;;;;;;5477122;25;43777;-59
2024/04/17 10:21:45;;;;;;;;;0.25;0.25;;;;;;;;5495687;25;44214;-58
2024/04/17 10:24:11;;;;;;;;;0.50;0.50;;;;;;;;5501440;25;43960;-58
2024/04/17 10:26:49;;;;;;;;;1.00;1.00;;;;;;;;5501341;25;44202;-58
2024/04/17 10:29:21;;;;;;;;;1.00;1.00;;;;;;;;5494050;25;43953;-60
2024/04/17 10:31:56;;;;;;;;;0.00;0.00;;;;;;;;5498845;25;43958;-58
2024/04/17 10:34:21;;;;;;;;;1.75;1.75;;;;;;;;5502473;25;43790;-58
2024/04/17 10:36:54;;;;;;;;;0.75;0.75;;;;;;;;5477658;25;43812;-58
2024/04/17 10:39:19;;;;;;;;;0.25;0.25;;;;;;;;5499682;25;43980;-58
2024/04/17 10:41:46;;;;;;;;;0.00;0.00;;;;;;;;5464750;25;46684;-58
2024/04/17 10:44:11;;;;;;;;;0.20;0.20;;;;;;;;5469871;25;43890;-58
2024/04/17 10:46:36;;;;;;;;;1.00;0.00;;;;;;;;5491762;25;44032;-58
2024/04/17 10:49:01;;;;;;;;;1.00;1.00;;;;;;;;5500586;25;44107;-58
2024/04/17 10:51:27;;;;;;;;;0.00;0.00;;;;;;;;5489390;25;44203;-58
2024/04/17 10:53:54;;;;;;;;;0.00;0.00;;;;;;;;5492350;25;44024;-58
2024/04/17 10:56:19;;;;;;;;;2.00;0.25;;;;;;;;5502672;25;43853;-57
2024/04/17 10:58:44;;;;;;;;;1.00;1.00;;;;;;;;5501296;25;44034;-57
2024/04/17 11:01:12;;;;;;;;;1.00;1.00;;;;;;;;5469617;25;45480;-57
2024/04/17 11:03:38;;;;;;;;;1.00;1.00;;;;;;;;5489092;25;43870;-58
2024/04/17 11:06:03;;;;;;;;;1.00;1.00;;;;;;;;5487404;25;43841;-57
2024/04/17 11:08:29;;;;;;;;;0.00;0.00;;;;;;;;5495923;25;44003;-57
2024/04/17 11:10:54;;;;;;;;;1.75;1.00;;;;;;;;5503126;25;43834;-57
2024/04/17 11:13:19;;;;;;;;;0.50;0.00;;;;;;;;5490996;25;43901;-57
2024/04/17 11:15:44;;;;;;;;;1.25;0.25;;;;;;;;5507270;25;43967;-57
2024/04/17 11:18:10;;;;;;;;;0.67;0.67;;;;;;;;5501749;25;44090;-57
2024/04/17 11:20:36;;;;;;;;;1.00;1.00;;;;;;;;5454320;25;44054;-57
2024/04/17 11:23:08;;;;;;;;;1.33;1.33;;;;;;;;5502965;25;44004;-56
2024/04/17 11:25:37;;;;;;;;;0.00;0.00;;;;;;;;5492146;25;43867;-57
2024/04/17 11:28:02;;;;;;;;;1.00;1.00;;;;;;;;5504587;25;44013;-57
2024/04/17 11:30:27;;;;;;;;;1.00;1.00;;;;;;;;5495547;25;44012;-57
2024/04/17 11:32:52;;;;;;;;;2.67;2.00;;;;;;;;5464879;25;44625;-57
2024/04/17 11:35:18;;;;;;;;;1.67;1.67;;;;;;;;5475225;25;44033;-57
2024/04/17 11:37:50;;;;;;;;;3.33;3.00;;;;;;;;5490593;25;44247;-59
2024/04/17 11:40:15;;;;;;;;;3.33;2.00;;;;;;;;5498343;25;45272;-57
2024/04/17 11:42:41;;;;;;;;;1.33;1.00;;;;;;;;5500514;25;43944;-58
2024/04/17 11:45:08;;;;;;;;;1.00;1.00;;;;;;;;5497034;25;44057;-57
2024/04/17 11:47:33;;;;;;;;;2.00;0.25;;;;;;;;5499299;25;43816;-59
2024/04/17 11:49:58;;;;;;;;;0.00;0.00;;;;;;;;5467650;25;46128;-58
2024/04/17 11:52:24;;;;;;;;;0.00;0.00;;;;;;;;5475568;25;43933;-58
2024/04/17 11:54:49;;;;;;;;;1.75;0.00;;;;;;;;5500992;25;43823;-58
2024/04/17 11:57:15;;;;;;;;;2.00;0.75;;;;;;;;5501238;25;43995;-57
2024/04/17 11:59:40;;;;;;;;;0.00;0.00;;;;;;;;5489658;25;44334;-58
2024/04/17 12:02:05;;;;;;;;;0.00;0.00;;;;;;;;5485389;25;44048;-55
2024/04/17 12:04:30;;;;;;;;;1.50;0.00;;;;;;;;5494327;25;44133;-58
2024/04/17 12:06:56;;;;;;;;;0.25;0.25;;;;;;;;5497400;25;44275;-57
2024/04/17 12:09:21;;;;;;;;;0.00;0.00;;;;;;;;5500915;25;45853;-58
2024/04/17 12:11:46;;;;;;;;;1.75;1.00;;;;;;;;5500176;25;44219;-57
2024/04/17 12:14:12;;;;;;;;;2.00;1.00;;;;;;;;5497172;25;43934;-58
2024/04/17 12:16:37;;;;;;;;;1.00;1.00;;;;;;;;5495321;25;43802;-57
2024/04/17 12:19:02;;;;;;;;;0.75;0.00;;;;;;;;5500087;25;45833;-57
2024/04/17 12:21:27;;;;;;;;;2.25;1.00;;;;;;;;5500330;25;43912;-58
2024/04/17 12:23:55;;;;;;;;;1.00;1.00;;;;;;;;5500379;25;43876;-57
2024/04/17 12:29:04;;;;;;;;;0.00;0.00;;;;;;;;5498179;25;43878;-57
2024/04/17 12:31:29;;;;;;;;;0.00;0.00;;;;;;;;5498549;25;43801;-57
2024/04/17 12:33:54;;;;;;;;;0.00;0.00;;;;;;;;5500831;25;44107;-57
2024/04/17 12:36:20;;;;;;;;;1.00;0.00;;;;;;;;5500552;25;44000;-57
2024/04/17 12:38:45;;;;;;;;;0.00;0.00;;;;;;;;5499817;25;45007;-57
2024/04/17 12:41:10;;;;;;;;;0.00;0.00;;;;;;;;5501037;25;43903;-57
2024/04/17 12:43:36;;;;;;;;;0.67;0.00;;;;;;;;5500111;25;43919;-57
2024/04/17 12:46:02;;;;;;;;;0.00;0.00;;;;;;;;5500927;25;43894;-57
2024/04/17 12:48:27;;;;;;;;;0.00;0.00;;;;;;;;5499578;25;44337;-56
2024/04/17 12:50:52;;;;;;;;;0.67;0.67;;;;;;;;5500153;25;44099;-57
2024/04/17 12:53:17;;;;;;;;;2.00;2.00;;;;;;;;5500558;25;43749;-56
2024/04/17 12:55:50;;;;;;;;;5.33;5.33;;;;;;;;5499650;25;44335;-56
2024/04/17 12:58:15;;;;;;;;;3.67;3.67;;;;;;;;5490654;25;44339;-56
2024/04/17 13:00:40;;;;;;;;;3.00;1.00;;;;;;;;5470192;25;44680;-53
2024/04/17 13:03:05;;;;;;;;;1.33;1.00;;;;;;;;5490038;25;43889;-53
2024/04/17 13:05:30;;;;;;;;;1.33;1.33;;;;;;;;5486554;25;43888;-50
2024/04/17 13:07:55;;;;;;;;;2.00;2.00;;;;;;;;5490333;25;45304;-51
2024/04/17 13:10:21;;;;;;;;;6.00;4.00;;;;;;;;5483617;25;44015;-49
2024/04/17 13:12:46;;;;;;;;;2.00;2.00;;;;;;;;5481521;25;43998;-50
2024/04/17 13:15:11;;;;;;;;;3.00;3.00;;;;;;;;5466410;25;43926;-51
2024/04/17 13:17:36;;;;;;;;;1.00;1.00;;;;;;;;5494225;25;44144;-50
2024/04/17 13:20:01;;;;;;;;;2.00;2.00;;;;;;;;5494911;25;43820;-51
2024/04/17 13:22:26;;;;;;;;;2.33;2.00;;;;;;;;5486221;25;44016;-52
2024/04/17 13:24:52;;;;;;;;;3.67;1.00;;;;;;;;5494705;25;43933;-52
2024/04/17 13:27:17;;;;;;;;;3.00;3.00;;;;;;;;5497399;25;45895;-50
2024/04/17 13:29:42;;;;;;;;;3.00;3.00;;;;;;;;5470326;25;43908;-53
2024/04/17 13:32:07;;;;;;;;;4.67;3.00;;;;;;;;5503152;25;43853;-51
2024/04/17 13:34:33;;;;;;;;;2.00;2.00;;;;;;;;5502333;25;43761;-51
2024/04/17 13:36:58;;;;;;;;;3.67;2.67;;;;;;;;5502328;25;45671;-51
2024/04/17 13:39:24;;;;;;;;;3.00;1.67;;;;;;;;5502577;25;44087;-50
2024/04/17 13:41:50;;;;;;;;;3.33;3.33;;;;;;;;5502938;25;43883;-50
2024/04/17 13:44:15;;;;;;;;;3.67;3.67;;;;;;;;5503592;25;43791;-51
2024/04/17 13:46:40;;;;;;;;;3.00;3.00;;;;;;;;5502323;25;45159;-52
2024/04/17 13:49:06;;;;;;;;;4.00;2.00;;;;;;;;5502694;25;43943;-50
2024/04/17 13:51:31;;;;;;;;;0.33;0.33;;;;;;;;5502240;25;43958;-51
2024/04/17 13:53:56;;;;;;;;;2.00;2.00;;;;;;;;5501186;25;44158;-51
2024/04/17 13:56:23;;;;;;;;;0.00;0.00;;;;;;;;5502347;25;44072;-50
2024/04/17 13:58:48;;;;;;;;;0.00;0.00;;;;;;;;5483475;25;43936;-51
2024/04/17 14:01:13;;;;;;;;;1.00;0.00;;;;;;;;5473060;25;43773;-52
2024/04/17 14:03:40;;;;;;;;;1.00;1.00;;;;;;;;5500059;25;43855;-53
2024/04/17 14:06:05;;;;;;;;;0.67;0.67;;;;;;;;5501780;25;45063;-51
2024/04/17 14:08:31;;;;;;;;;0.00;0.00;;;;;;;;5502010;25;44091;-51
2024/04/17 14:10:56;;;;;;;;;0.67;0.67;;;;;;;;5503004;25;43964;-53
2024/04/17 14:13:25;;;;;;;;;1.67;0.33;;;;;;;;5491564;25;43910;-51
2024/04/17 14:15:50;;;;;;;;;0.33;0.33;;;;;;;;5489462;25;44944;-54
2024/04/17 14:18:15;;;;;;;;;1.00;1.00;;;;;;;;5460301;25;43901;-57
2024/04/17 14:20:41;;;;;;;;;1.33;0.00;;;;;;;;5484185;25;44136;-57
2024/04/17 14:23:06;;;;;;;;;1.00;1.00;;;;;;;;5498289;25;44180;-57
2024/04/17 14:25:32;;;;;;;;;1.00;1.00;;;;;;;;5500608;25;44361;-57
2024/04/17 14:27:57;;;;;;;;;0.33;0.33;;;;;;;;5501802;25;43953;-57
2024/04/17 14:30:23;;;;;;;;;0.67;0.67;;;;;;;;5481103;25;43960;-57
2024/04/17 14:32:48;;;;;;;;;0.67;0.67;;;;;;;;5491060;25;43614;-57
2024/04/17 14:35:13;;;;;;;;;1.00;1.00;;;;;;;;5489950;25;45194;-57